Time;durP1;ratioP1;P1;durP2;ratioP2;P2;SDS_P1;SDS_P2;PMS_P1;PMS_P2;Temp;Humidity;BMP_temperature;BMP_pressure;BME280_temperature;BME280_humidity;BME280_pressure;Samples;Min_cycle;Max_cycle;Signal;HPM_P1;HPM_P2
2024/03/24 00:00:04;;;;;;;28.30;17.65;;;;;;;4.98;58.61;92850.78;521695;28;902;-73
2024/03/24 00:00:20;;;;;;;29.05;16.90;;;;;;;4.98;58.38;92848.78;521621;28;1120;-73
2024/03/24 00:00:35;;;;;;;24.13;15.50;;;;;;;5.00;58.93;92848.25;520909;28;1752;-74
2024/03/24 00:01:02;;;;;;;22.80;14.98;;;;;;;5.01;58.63;92846.97;520266;28;863;-73
2024/03/24 00:01:17;;;;;;;22.60;15.32;;;;;;;5.02;58.23;92851.94;519528;28;1240;-73
2024/03/24 00:01:33;;;;;;;24.10;15.35;;;;;;;5.05;58.02;92855.59;520249;28;1568;-73
2024/03/24 00:01:48;;;;;;;23.63;15.30;;;;;;;5.08;58.48;92851.81;520046;28;1934;-73
2024/03/24 00:02:04;;;;;;;21.05;15.13;;;;;;;5.08;57.98;92847.09;521264;28;1088;-73
2024/03/24 00:02:19;;;;;;;21.67;15.77;;;;;;;5.10;58.15;92850.03;521699;28;915;-73
2024/03/24 00:02:36;;;;;;;25.75;16.52;;;;;;;5.11;58.12;92851.50;521280;28;907;-73
2024/03/24 00:02:51;;;;;;;29.08;17.38;;;;;;;5.13;58.29;92845.50;521606;28;882;-73
2024/03/24 00:03:06;;;;;;;28.83;17.42;;;;;;;5.14;58.34;92842.25;521631;28;1329;-73
2024/03/24 00:03:22;;;;;;;27.07;17.37;;;;;;;5.18;57.81;92852.84;521347;28;1835;-73
2024/03/24 00:03:38;;;;;;;26.07;16.70;;;;;;;5.20;57.68;92844.84;520412;28;982;-73
2024/03/24 00:03:53;;;;;;;26.67;16.25;;;;;;;5.20;57.76;92848.34;520708;28;839;-73
2024/03/24 00:04:09;;;;;;;25.00;16.60;;;;;;;5.12;57.87;92839.31;519736;28;855;-74
2024/03/24 00:04:25;;;;;;;24.60;16.58;;;;;;;5.00;58.31;92826.38;520509;28;899;-74
2024/03/24 00:04:40;;;;;;;25.90;17.13;;;;;;;5.09;58.38;92851.28;521194;28;962;-74
2024/03/24 00:04:56;;;;;;;24.80;17.65;;;;;;;5.08;58.77;92849.09;519638;28;1108;-74
2024/03/24 00:05:11;;;;;;;24.07;17.67;;;;;;;5.08;59.03;92841.63;519673;28;756;-74
2024/03/24 00:05:27;;;;;;;24.75;18.02;;;;;;;5.10;58.69;92846.56;520219;28;832;-74
2024/03/24 00:05:42;;;;;;;26.73;17.93;;;;;;;5.12;58.27;92849.50;521585;28;771;-74
2024/03/24 00:05:58;;;;;;;26.00;17.33;;;;;;;5.14;58.46;92846.97;521400;28;1747;-74
2024/03/24 00:06:14;;;;;;;24.07;16.87;;;;;;;5.14;58.28;92841.50;520954;28;969;-74
2024/03/24 00:06:29;;;;;;;27.45;17.52;;;;;;;5.16;58.18;92847.19;521627;28;890;-74
2024/03/24 00:06:45;;;;;;;29.20;18.02;;;;;;;5.14;58.06;92842.25;521586;28;763;-74
2024/03/24 00:07:00;;;;;;;26.03;17.13;;;;;;;5.14;57.41;92855.19;521718;28;830;-74
2024/03/24 00:07:16;;;;;;;24.45;16.42;;;;;;;5.15;57.97;92846.47;521776;28;843;-74
2024/03/24 00:07:31;;;;;;;22.27;15.43;;;;;;;5.17;57.84;92848.66;521651;28;764;-74
2024/03/24 00:07:47;;;;;;;21.23;15.57;;;;;;;5.19;57.33;92852.34;521587;28;839;-74
2024/03/24 00:08:03;;;;;;;21.23;15.17;;;;;;;5.20;57.71;92844.84;521480;28;1171;-74
2024/03/24 00:08:18;;;;;;;19.98;14.55;;;;;;;5.22;57.68;92845.81;521547;28;1043;-74
2024/03/24 00:08:34;;;;;;;22.13;15.47;;;;;;;5.25;57.98;92846.75;521019;28;836;-74
2024/03/24 00:08:51;;;;;;;25.02;15.98;;;;;;;5.25;58.12;92839.28;521319;28;899;-74
2024/03/24 00:09:09;;;;;;;26.42;17.00;;;;;;;5.27;57.96;92844.22;519471;28;872;-74
2024/03/24 00:09:25;;;;;;;25.05;16.75;;;;;;;5.30;57.44;92851.38;521535;28;1104;-74
2024/03/24 00:09:40;;;;;;;21.92;16.33;;;;;;;5.32;57.25;92835.16;520347;28;1093;-73
2024/03/24 00:09:56;;;;;;;21.80;16.27;;;;;;;5.34;57.21;92846.31;521541;28;807;-72
2024/03/24 00:10:13;;;;;;;23.20;16.53;;;;;;;5.36;57.11;92843.78;521644;28;831;-72
2024/03/24 00:10:28;;;;;;;24.50;16.25;;;;;;;5.37;56.98;92837.78;521618;28;1066;-71
2024/03/24 00:10:44;;;;;;;21.63;15.17;;;;;;;5.39;56.67;92846.19;521585;28;840;-72
2024/03/24 00:10:59;;;;;;;22.92;15.70;;;;;;;5.42;56.79;92841.66;521878;28;829;-72
2024/03/24 00:11:15;;;;;;;23.47;15.63;;;;;;;5.43;56.23;92843.16;519976;28;1544;-72
2024/03/24 00:11:30;;;;;;;22.10;14.52;;;;;;;5.43;56.42;92843.16;520603;28;894;-71
2024/03/24 00:11:46;;;;;;;21.00;14.57;;;;;;;5.43;55.91;92834.94;521726;28;871;-71
2024/03/24 00:12:01;;;;;;;21.00;15.40;;;;;;;5.44;56.21;92844.59;519669;28;907;-71
2024/03/24 00:12:17;;;;;;;22.08;15.30;;;;;;;5.38;56.54;92830.31;519762;28;844;-71
2024/03/24 00:12:32;;;;;;;22.67;14.63;;;;;;;5.36;56.89;92838.31;521676;28;770;-71
2024/03/24 00:12:48;;;;;;;21.40;14.13;;;;;;;5.34;57.04;92841.59;521815;28;971;-71
2024/03/24 00:13:04;;;;;;;21.02;14.32;;;;;;;5.34;56.96;92838.84;521890;28;915;-71
2024/03/24 00:13:19;;;;;;;20.73;14.53;;;;;;;5.33;56.52;92837.38;521742;28;1145;-71
2024/03/24 00:13:35;;;;;;;22.05;15.63;;;;;;;5.34;56.41;92838.84;521771;28;784;-71
2024/03/24 00:13:50;;;;;;;22.10;16.43;;;;;;;5.35;56.57;92839.56;521774;28;888;-73
2024/03/24 00:14:06;;;;;;;20.90;16.13;;;;;;;5.37;56.24;92842.53;521009;28;1721;-71
2024/03/24 00:14:21;;;;;;;20.98;16.40;;;;;;;5.37;55.84;92842.53;521018;28;832;-71
2024/03/24 00:14:37;;;;;;;21.33;16.57;;;;;;;5.36;56.31;92843.78;521660;28;1073;-71
2024/03/24 00:14:52;;;;;;;21.35;15.85;;;;;;;5.33;56.47;92836.63;521882;28;776;-71
2024/03/24 00:15:08;;;;;;;22.13;15.63;;;;;;;5.32;56.60;92837.91;521763;28;847;-71
2024/03/24 00:15:23;;;;;;;23.60;16.33;;;;;;;5.32;56.33;92835.16;521821;28;856;-71
2024/03/24 00:15:39;;;;;;;24.13;16.13;;;;;;;5.31;56.44;92837.16;521701;28;796;-71
2024/03/24 00:15:55;;;;;;;23.87;16.03;;;;;;;5.31;56.56;92837.16;521854;28;859;-73
2024/03/24 00:16:10;;;;;;;21.98;15.57;;;;;;;5.32;56.04;92837.91;521877;28;1018;-72
2024/03/24 00:16:26;;;;;;;20.17;14.88;;;;;;;5.34;56.08;92840.84;520558;28;1506;-71
2024/03/24 00:16:42;;;;;;;20.00;14.88;;;;;;;5.32;56.46;92835.16;521248;28;1610;-72
2024/03/24 00:16:57;;;;;;;20.97;15.63;;;;;;;5.20;56.66;92825.69;520806;28;907;-71
2024/03/24 00:17:13;;;;;;;20.75;15.82;;;;;;;5.30;57.07;92841.19;520637;28;911;-71
2024/03/24 00:17:28;;;;;;;22.60;15.53;;;;;;;5.30;56.88;92843.91;521788;28;820;-71
2024/03/24 00:17:43;;;;;;;23.07;15.23;;;;;;;5.30;56.66;92838.44;521628;28;1007;-72
2024/03/24 00:17:59;;;;;;;23.40;16.10;;;;;;;5.29;56.75;92836.22;521753;28;1524;-71
2024/03/24 00:18:14;;;;;;;23.47;16.10;;;;;;;5.27;57.11;92834.00;521916;28;910;-71
2024/03/24 00:18:30;;;;;;;21.98;15.20;;;;;;;5.27;56.89;92838.75;521747;28;839;-70
2024/03/24 00:18:45;;;;;;;20.90;14.97;;;;;;;5.21;57.28;92836.13;521595;28;974;-73
2024/03/24 00:19:03;;;;;;;22.55;15.45;;;;;;;5.12;57.30;92827.63;521834;28;855;-70
2024/03/24 00:19:18;;;;;;;21.75;14.88;;;;;;;5.07;57.13;92836.66;521824;28;927;-71
2024/03/24 00:19:34;;;;;;;18.02;14.18;;;;;;;5.02;57.10;92843.75;521793;28;1082;-71
2024/03/24 00:19:49;;;;;;;18.53;13.97;;;;;;;4.98;56.82;92837.13;519921;28;1180;-71
2024/03/24 00:20:06;;;;;;;19.98;13.35;;;;;;;4.97;57.10;92849.31;519818;28;892;-71
2024/03/24 00:20:21;;;;;;;19.98;13.57;;;;;;;4.96;56.92;92837.63;519942;28;1748;-71
2024/03/24 00:20:37;;;;;;;17.98;13.60;;;;;;;4.97;56.71;92841.09;520539;28;972;-70
2024/03/24 00:20:52;;;;;;;19.10;13.97;;;;;;;4.99;56.78;92842.03;519849;28;1058;-70
2024/03/24 00:21:08;;;;;;;20.85;14.50;;;;;;;5.01;56.69;92833.31;519553;28;1158;-71
2024/03/24 00:21:23;;;;;;;19.47;14.10;;;;;;;5.02;57.31;92845.72;521017;28;957;-71
2024/03/24 00:21:40;;;;;;;21.02;14.13;;;;;;;4.99;57.23;92836.56;521418;28;1922;-71
2024/03/24 00:21:55;;;;;;;20.80;13.80;;;;;;;4.96;57.18;92840.34;521624;28;1177;-70
2024/03/24 00:22:11;;;;;;;20.08;14.00;;;;;;;4.92;57.11;92837.22;520167;28;1150;-70
2024/03/24 00:22:26;;;;;;;20.93;14.13;;;;;;;4.90;57.17;92837.00;520949;28;1063;-74
2024/03/24 00:22:42;;;;;;;20.97;14.27;;;;;;;4.87;57.18;92835.34;521410;28;1027;-74
2024/03/24 00:22:57;;;;;;;20.83;14.48;;;;;;;4.84;57.35;92833.63;521315;28;1138;-73
2024/03/24 00:23:13;;;;;;;18.92;13.63;;;;;;;4.84;57.64;92841.84;521625;28;1098;-73
2024/03/24 00:23:28;;;;;;;21.00;13.30;;;;;;;4.82;57.35;92835.44;520433;28;1157;-74
2024/03/24 00:23:43;;;;;;;22.00;13.97;;;;;;;4.82;57.88;92833.44;520847;28;956;-73
2024/03/24 00:24:03;;;;;;;19.70;14.18;;;;;;;4.82;57.59;92840.91;520832;28;956;-73
2024/03/24 00:24:19;;;;;;;19.52;13.77;;;;;;;4.80;58.36;92829.75;519394;28;1103;-73
2024/03/24 00:24:34;;;;;;;20.67;14.32;;;;;;;4.76;58.26;92832.81;520436;28;1581;-73
2024/03/24 00:24:50;;;;;;;19.38;14.15;;;;;;;4.66;58.65;92836.50;520821;28;1531;-75
2024/03/24 00:25:05;;;;;;;20.10;14.83;;;;;;;4.66;58.42;92834.47;520329;28;1091;-74
2024/03/24 00:25:21;;;;;;;21.00;15.23;;;;;;;4.66;58.40;92833.75;521143;28;1082;-74
2024/03/24 00:25:37;;;;;;;22.20;15.07;;;;;;;4.61;58.71;92833.31;521396;28;1140;-73
2024/03/24 00:25:53;;;;;;;22.65;15.50;;;;;;;4.59;58.94;92833.09;521068;28;1027;-74
2024/03/24 00:26:08;;;;;;;19.37;14.67;;;;;;;4.59;58.88;92837.84;520894;28;1122;-74
2024/03/24 00:26:27;;;;;;;19.17;14.45;;;;;;;4.58;58.99;92833.63;521521;28;1075;-74
2024/03/24 00:26:42;;;;;;;22.02;14.90;;;;;;;4.58;58.59;92830.91;520883;28;1098;-74
2024/03/24 00:26:58;;;;;;;20.23;14.43;;;;;;;4.58;58.62;92834.38;520672;28;1228;-74
2024/03/24 00:27:15;;;;;;;20.20;14.48;;;;;;;4.61;58.89;92836.03;520434;28;964;-74
2024/03/24 00:27:31;;;;;;;21.48;15.13;;;;;;;4.65;58.77;92838.47;521041;28;1682;-74
2024/03/24 00:27:46;;;;;;;20.67;14.43;;;;;;;4.63;59.01;92844.47;520781;28;1032;-73
2024/03/24 00:28:02;;;;;;;19.40;13.88;;;;;;;4.61;59.04;92833.31;519786;28;792;-74
2024/03/24 00:28:18;;;;;;;20.52;13.95;;;;;;;4.63;58.55;92836.25;519763;28;881;-73
2024/03/24 00:28:35;;;;;;;21.08;14.07;;;;;;;4.63;58.46;92833.50;520280;28;906;-73
2024/03/24 00:28:50;;;;;;;21.05;14.60;;;;;;;4.68;58.65;92839.44;521713;28;866;-74
2024/03/24 00:29:06;;;;;;;20.52;14.82;;;;;;;4.68;58.24;92839.44;521856;28;808;-74
2024/03/24 00:29:21;;;;;;;19.30;14.33;;;;;;;4.60;58.81;92826.38;521617;28;1055;-73
2024/03/24 00:29:36;;;;;;;18.50;13.70;;;;;;;4.66;58.79;92839.22;521778;28;1053;-73
2024/03/24 00:29:52;;;;;;;18.42;13.98;;;;;;;4.65;58.85;92835.00;521702;28;911;-74
2024/03/24 00:30:09;;;;;;;20.53;14.53;;;;;;;4.65;58.44;92841.22;521860;28;980;-73
2024/03/24 00:30:24;;;;;;;21.17;14.25;;;;;;;4.50;58.63;92810.94;521874;28;917;-74
2024/03/24 00:30:40;;;;;;;19.50;13.73;;;;;;;4.70;58.09;92836.91;521701;28;744;-74
2024/03/24 00:30:55;;;;;;;19.27;13.73;;;;;;;4.72;57.95;92834.38;521858;28;753;-74
2024/03/24 00:31:11;;;;;;;20.23;13.93;;;;;;;4.74;58.10;92827.13;521595;28;1086;-74
2024/03/24 00:31:26;;;;;;;19.40;14.07;;;;;;;4.76;58.45;92826.59;521893;28;871;-75
2024/03/24 00:31:41;;;;;;;19.00;14.10;;;;;;;4.79;57.97;92833.72;521757;28;844;-73
2024/03/24 00:31:57;;;;;;;19.95;14.48;;;;;;;4.79;58.67;92831.00;521537;28;1800;-74
2024/03/24 00:32:12;;;;;;;21.33;14.67;;;;;;;4.80;58.36;92827.75;520612;28;844;-73
2024/03/24 00:32:28;;;;;;;21.38;14.35;;;;;;;4.81;58.53;92831.22;521575;28;848;-74
2024/03/24 00:32:43;;;;;;;20.43;13.83;;;;;;;4.83;58.17;92832.16;520023;28;1065;-74
2024/03/24 00:32:59;;;;;;;18.85;13.55;;;;;;;4.85;58.21;92837.13;519847;28;792;-74
2024/03/24 00:33:14;;;;;;;18.43;13.60;;;;;;;4.86;57.86;92833.84;520842;28;1363;-74
2024/03/24 00:33:30;;;;;;;21.88;14.20;;;;;;;4.86;57.77;92833.09;520304;28;994;-74
2024/03/24 00:33:45;;;;;;;21.30;14.23;;;;;;;4.85;58.02;92828.91;520709;28;958;-74
2024/03/24 00:34:01;;;;;;;19.40;14.05;;;;;;;4.86;58.22;92838.56;521694;28;902;-74
2024/03/24 00:34:16;;;;;;;20.17;14.37;;;;;;;4.84;58.04;92825.44;521718;28;898;-74
2024/03/24 00:34:32;;;;;;;18.85;14.00;;;;;;;4.84;58.14;92830.16;521686;28;891;-74
2024/03/24 00:34:47;;;;;;;18.13;13.17;;;;;;;4.83;58.46;92829.41;520603;28;1776;-74
2024/03/24 00:35:03;;;;;;;18.50;13.63;;;;;;;4.81;58.45;92833.97;521829;28;819;-73
2024/03/24 00:35:19;;;;;;;17.50;14.03;;;;;;;4.76;58.58;92832.06;521802;28;797;-74
2024/03/24 00:35:34;;;;;;;18.48;14.30;;;;;;;4.75;58.92;92828.59;521790;28;836;-73
2024/03/24 00:35:50;;;;;;;22.17;15.10;;;;;;;4.76;58.92;92832.06;521651;28;887;-74
2024/03/24 00:36:06;;;;;;;24.03;15.23;;;;;;;4.76;58.90;92834.81;521924;28;761;-74
2024/03/24 00:36:21;;;;;;;22.77;15.07;;;;;;;4.77;58.48;92830.78;521793;28;843;-74
2024/03/24 00:36:37;;;;;;;21.48;14.75;;;;;;;4.76;58.57;92827.34;521602;28;1143;-74
2024/03/24 00:36:52;;;;;;;22.37;15.20;;;;;;;4.80;58.33;92824.28;521148;28;745;-74
2024/03/24 00:37:08;;;;;;;21.23;14.77;;;;;;;4.82;58.35;92832.69;521789;28;863;-74
2024/03/24 00:37:23;;;;;;;19.30;14.20;;;;;;;4.80;59.11;92835.22;521863;28;804;-74
2024/03/24 00:37:39;;;;;;;19.33;14.43;;;;;;;4.78;58.72;92833.00;521253;28;1752;-74
2024/03/24 00:37:54;;;;;;;19.33;14.60;;;;;;;4.79;59.06;92831.00;519804;28;1028;-74
2024/03/24 00:38:09;;;;;;;19.97;14.37;;;;;;;4.80;59.06;92827.75;520668;28;1055;-75
2024/03/24 00:38:25;;;;;;;23.20;14.32;;;;;;;4.77;58.90;92828.06;520124;28;1098;-74
2024/03/24 00:38:40;;;;;;;21.60;14.53;;;;;;;4.78;58.78;92829.53;519550;28;1023;-73
2024/03/24 00:38:56;;;;;;;19.95;14.88;;;;;;;4.79;58.05;92828.25;520249;28;1082;-73
2024/03/24 00:39:11;;;;;;;19.60;14.93;;;;;;;4.81;58.42;92826.47;520473;28;1098;-73
2024/03/24 00:39:27;;;;;;;18.85;14.88;;;;;;;4.82;58.58;92829.94;521903;28;843;-72
2024/03/24 00:39:42;;;;;;;20.20;15.30;;;;;;;4.83;58.07;92828.72;521332;28;980;-72
2024/03/24 00:39:58;;;;;;;19.05;14.65;;;;;;;4.82;58.10;92838.91;521393;28;1102;-73
2024/03/24 00:40:13;;;;;;;18.73;14.17;;;;;;;4.78;58.35;92827.53;520777;28;1319;-73
2024/03/24 00:40:29;;;;;;;20.88;14.55;;;;;;;4.80;58.10;92830.50;519391;28;1110;-72
2024/03/24 00:40:44;;;;;;;20.03;14.37;;;;;;;4.81;57.65;92831.94;521105;28;984;-72
2024/03/24 00:41:00;;;;;;;22.50;14.23;;;;;;;4.82;57.87;92822.50;521295;28;1199;-72
2024/03/24 00:41:15;;;;;;;23.53;14.33;;;;;;;4.83;57.73;92826.69;521696;28;1087;-72
2024/03/24 00:41:30;;;;;;;22.83;15.10;;;;;;;4.83;58.31;92826.69;519540;28;1071;-72
2024/03/24 00:41:46;;;;;;;21.52;15.52;;;;;;;4.84;57.90;92828.16;521255;28;1967;-72
2024/03/24 00:42:01;;;;;;;20.50;15.23;;;;;;;4.76;57.97;92824.59;520948;28;1189;-72
2024/03/24 00:42:17;;;;;;;19.77;15.07;;;;;;;4.67;57.80;92827.00;519904;28;1039;-72
2024/03/24 00:42:32;;;;;;;20.30;15.50;;;;;;;4.57;58.57;92829.41;521409;28;1019;-73
2024/03/24 00:42:48;;;;;;;21.88;15.80;;;;;;;4.48;58.80;92818.91;521279;28;1531;-72
2024/03/24 00:43:03;;;;;;;20.53;15.70;;;;;;;4.29;58.59;92802.59;520977;28;989;-72
2024/03/24 00:43:19;;;;;;;20.63;15.40;;;;;;;4.48;58.29;92816.91;519734;28;1086;-72
2024/03/24 00:43:38;;;;;;;22.57;15.77;;;;;;;4.51;58.46;92821.31;521784;28;768;-72
2024/03/24 00:43:53;;;;;;;23.35;16.27;;;;;;;4.45;58.90;92823.44;521017;28;964;-72
2024/03/24 00:44:09;;;;;;;23.80;16.35;;;;;;;4.44;59.55;92824.69;519614;28;1012;-73
2024/03/24 00:44:24;;;;;;;21.53;15.60;;;;;;;4.45;59.24;92823.44;521810;28;844;-73
2024/03/24 00:44:39;;;;;;;23.00;15.77;;;;;;;4.43;59.54;92817.75;521685;28;1135;-74
2024/03/24 00:44:55;;;;;;;25.98;16.15;;;;;;;4.44;59.58;92816.47;521870;28;772;-73
2024/03/24 00:45:10;;;;;;;25.20;16.50;;;;;;;4.46;59.26;92822.16;521744;28;988;-73
2024/03/24 00:45:26;;;;;;;24.08;16.45;;;;;;;4.47;59.61;92815.44;521853;28;799;-73
2024/03/24 00:45:42;;;;;;;22.98;16.10;;;;;;;4.49;59.17;92815.66;521624;28;840;-73
2024/03/24 00:45:57;;;;;;;20.73;15.30;;;;;;;4.47;58.90;92814.69;521704;28;1004;-73
2024/03/24 00:46:13;;;;;;;19.13;14.02;;;;;;;4.43;58.74;92820.47;520856;28;1678;-74
2024/03/24 00:46:28;;;;;;;17.70;13.47;;;;;;;4.37;59.02;92806.19;520421;28;788;-73
2024/03/24 00:46:44;;;;;;;19.92;13.90;;;;;;;4.44;58.73;92811.00;521482;28;930;-73
2024/03/24 00:46:59;;;;;;;20.80;14.17;;;;;;;4.47;58.92;92809.22;521556;28;907;-73
2024/03/24 00:47:15;;;;;;;20.93;14.57;;;;;;;4.50;58.70;92816.41;520971;28;769;-74
2024/03/24 00:47:30;;;;;;;21.23;14.60;;;;;;;4.45;59.34;92814.50;519603;28;835;-73
2024/03/24 00:47:45;;;;;;;19.03;14.23;;;;;;;4.40;58.96;92807.13;521424;28;958;-73
2024/03/24 00:48:01;;;;;;;20.35;14.73;;;;;;;4.35;59.23;92814.16;521558;28;1255;-74
2024/03/24 00:48:17;;;;;;;21.87;15.10;;;;;;;4.33;59.47;92819.41;521512;28;812;-74
2024/03/24 00:48:32;;;;;;;20.73;14.80;;;;;;;4.30;59.21;92812.28;521731;28;871;-73
2024/03/24 00:48:47;;;;;;;20.57;14.97;;;;;;;4.31;59.29;92815.75;521462;28;764;-73
2024/03/24 00:49:04;;;;;;;21.10;14.70;;;;;;;4.20;58.84;92796.81;521343;28;1055;-73
2024/03/24 00:49:19;;;;;;;19.42;14.13;;;;;;;4.32;59.41;92815.22;521356;28;1126;-73
2024/03/24 00:49:34;;;;;;;17.37;13.47;;;;;;;4.35;58.69;92810.69;521250;28;1164;-73
2024/03/24 00:49:50;;;;;;;17.48;12.93;;;;;;;4.36;59.03;92812.91;520050;28;1035;-73
2024/03/24 00:50:06;;;;;;;20.70;13.63;;;;;;;4.39;59.00;92814.59;520233;28;1161;-73
2024/03/24 00:50:21;;;;;;;21.83;13.98;;;;;;;4.39;58.60;92822.78;519746;28;1641;-73
2024/03/24 00:50:37;;;;;;;21.33;13.50;;;;;;;4.40;58.66;92827.00;520036;28;1516;-73
2024/03/24 00:50:52;;;;;;;18.77;12.50;;;;;;;4.42;59.11;92818.25;521296;28;1070;-72
2024/03/24 00:51:08;;;;;;;14.90;11.68;;;;;;;4.40;59.08;92818.78;520269;28;978;-73
2024/03/24 00:51:23;;;;;;;18.10;13.33;;;;;;;4.37;58.63;92821.84;521788;28;883;-73
2024/03/24 00:51:39;;;;;;;20.08;13.80;;;;;;;4.36;59.03;92823.84;521581;28;1147;-73
2024/03/24 00:51:54;;;;;;;16.37;12.30;;;;;;;4.36;59.00;92821.09;519675;28;785;-73
2024/03/24 00:52:10;;;;;;;14.53;11.93;;;;;;;4.36;59.37;92820.34;519693;28;827;-73
2024/03/24 00:52:25;;;;;;;15.35;12.45;;;;;;;4.35;59.28;92827.81;521143;28;795;-73
2024/03/24 00:52:40;;;;;;;16.83;13.17;;;;;;;4.34;59.29;92822.88;521386;28;757;-73
2024/03/24 00:52:56;;;;;;;16.73;12.60;;;;;;;4.36;59.19;92825.81;519947;28;1520;-73
2024/03/24 00:53:11;;;;;;;16.33;12.40;;;;;;;4.37;59.05;92828.06;520873;28;1069;-73
2024/03/24 00:53:27;;;;;;;17.10;12.45;;;;;;;4.34;59.37;92817.41;520289;28;1111;-73
2024/03/24 00:53:42;;;;;;;17.83;12.10;;;;;;;4.34;59.37;92820.16;521442;28;991;-73
2024/03/24 00:53:58;;;;;;;16.13;11.60;;;;;;;4.23;59.44;92828.53;521368;28;1138;-73
2024/03/24 00:54:13;;;;;;;14.73;11.23;;;;;;;4.14;59.42;92821.47;521362;28;1099;-73
2024/03/24 00:54:29;;;;;;;13.30;11.02;;;;;;;4.12;59.45;92829.47;521346;28;1264;-74
2024/03/24 00:54:44;;;;;;;12.87;10.60;;;;;;;4.12;59.59;92823.25;521137;28;918;-73
2024/03/24 00:55:00;;;;;;;13.60;10.43;;;;;;;4.14;59.53;92826.19;520874;28;1107;-73
2024/03/24 00:55:15;;;;;;;14.30;10.33;;;;;;;4.14;59.29;92818.75;520980;28;1166;-73
2024/03/24 00:55:31;;;;;;;14.73;11.20;;;;;;;4.15;59.39;92827.69;519460;28;1719;-73
2024/03/24 00:55:46;;;;;;;14.40;11.73;;;;;;;4.14;59.75;92820.72;521250;28;1230;-73
2024/03/24 00:56:02;;;;;;;14.17;11.17;;;;;;;4.16;59.77;92823.72;521123;28;1035;-73
2024/03/24 00:56:17;;;;;;;13.68;11.73;;;;;;;4.16;59.62;92824.41;521369;28;1178;-73
2024/03/24 00:56:32;;;;;;;13.73;12.30;;;;;;;4.18;59.48;92826.66;519393;28;1013;-72
2024/03/24 00:56:48;;;;;;;14.45;12.52;;;;;;;4.21;59.39;92829.06;521186;28;1216;-73
2024/03/24 00:57:03;;;;;;;16.23;12.63;;;;;;;4.25;59.28;92820.56;521333;28;1208;-73
2024/03/24 00:57:19;;;;;;;16.20;12.55;;;;;;;4.24;58.85;92822.56;519886;28;1130;-73
2024/03/24 00:57:34;;;;;;;15.07;12.03;;;;;;;4.16;59.30;92816.22;519714;28;1118;-73
2024/03/24 00:57:53;;;;;;;15.57;11.15;;;;;;;3.92;59.09;92785.63;520651;28;1023;-73
2024/03/24 00:58:08;;;;;;;14.50;10.73;;;;;;;4.02;59.51;92819.47;520768;28;1392;-74
2024/03/24 00:58:25;;;;;;;14.45;10.80;;;;;;;3.99;59.62;92817.75;520628;28;969;-74
2024/03/24 00:58:40;;;;;;;14.83;11.40;;;;;;;3.84;59.53;92790.94;521079;28;1146;-74
2024/03/24 00:58:55;;;;;;;15.47;12.10;;;;;;;4.05;59.70;92815.69;519714;28;1112;-73
2024/03/24 00:59:11;;;;;;;15.25;12.20;;;;;;;4.04;59.56;92817.69;520514;28;1142;-73
2024/03/24 00:59:26;;;;;;;15.03;11.97;;;;;;;4.07;59.78;92816.63;519608;28;891;-73
2024/03/24 00:59:42;;;;;;;16.25;12.10;;;;;;;4.11;59.19;92816.34;520301;28;926;-74
2024/03/24 00:59:57;;;;;;;16.73;12.47;;;;;;;4.15;59.18;92816.75;519514;28;801;-73
2024/03/24 01:00:14;;;;;;;16.75;12.55;;;;;;;4.17;58.71;92817.72;519574;28;864;-73
2024/03/24 01:00:29;;;;;;;18.05;12.80;;;;;;;4.17;59.17;92814.25;520999;28;1271;-73
2024/03/24 01:00:46;;;;;;;20.50;12.80;;;;;;;4.14;59.42;92816.00;520986;28;804;-73
2024/03/24 01:01:01;;;;;;;19.52;12.90;;;;;;;4.11;59.43;92821.78;520632;28;1779;-73
2024/03/24 01:01:17;;;;;;;20.57;13.57;;;;;;;4.08;59.68;92820.09;520465;28;950;-74
2024/03/24 01:01:32;;;;;;;20.38;13.45;;;;;;;4.08;59.45;92820.09;521510;28;883;-73
2024/03/24 01:01:47;;;;;;;18.43;13.47;;;;;;;4.08;60.14;92817.38;521390;28;1973;-74
2024/03/24 01:02:03;;;;;;;19.05;13.73;;;;;;;4.08;59.33;92820.84;521605;28;786;-73
2024/03/24 01:02:18;;;;;;;20.00;14.20;;;;;;;4.11;60.16;92819.06;521622;28;1176;-73
2024/03/24 01:02:34;;;;;;;20.55;13.73;;;;;;;4.09;59.72;92818.84;521648;28;843;-73
2024/03/24 01:02:50;;;;;;;17.63;12.57;;;;;;;4.08;60.13;92812.66;520000;28;820;-73
2024/03/24 01:03:05;;;;;;;16.48;12.50;;;;;;;4.10;59.98;92815.59;521013;28;867;-73
2024/03/24 01:03:21;;;;;;;18.80;13.32;;;;;;;4.12;60.07;92815.06;521625;28;776;-73
2024/03/24 01:03:36;;;;;;;19.17;13.53;;;;;;;4.14;60.28;92812.53;521624;28;812;-73
2024/03/24 01:03:52;;;;;;;18.23;13.18;;;;;;;4.16;60.09;92813.50;520679;28;930;-73
2024/03/24 01:04:08;;;;;;;17.87;12.70;;;;;;;4.19;59.72;92817.94;521657;28;811;-73
2024/03/24 01:04:24;;;;;;;17.30;12.65;;;;;;;4.20;59.76;92816.66;521737;28;871;-73
2024/03/24 01:04:39;;;;;;;17.67;13.60;;;;;;;4.20;59.39;92818.66;520997;28;1702;-73
2024/03/24 01:04:56;;;;;;;18.77;14.07;;;;;;;4.22;59.79;92825.06;519841;28;797;-73
2024/03/24 01:05:12;;;;;;;19.48;14.43;;;;;;;4.21;59.10;92812.66;521329;28;883;-73
2024/03/24 01:05:27;;;;;;;19.70;14.23;;;;;;;4.23;59.38;92823.81;521544;28;1021;-73
2024/03/24 01:05:43;;;;;;;17.58;13.30;;;;;;;4.24;59.30;92816.34;521489;28;860;-73
2024/03/24 01:05:58;;;;;;;18.87;13.30;;;;;;;4.28;59.22;92819.50;521450;28;914;-73
2024/03/24 01:06:14;;;;;;;18.63;13.00;;;;;;;4.24;59.69;92814.38;521637;28;864;-74
2024/03/24 01:06:31;;;;;;;14.90;11.23;;;;;;;4.15;59.08;92817.50;521626;28;772;-72
2024/03/24 01:06:47;;;;;;;15.30;10.65;;;;;;;4.08;59.20;92817.38;519917;28;1433;-73
2024/03/24 01:07:03;;;;;;;15.97;10.60;;;;;;;4.01;60.01;92815.97;520564;28;895;-73
2024/03/24 01:07:18;;;;;;;15.52;10.20;;;;;;;3.83;59.79;92817.50;521672;28;819;-73
2024/03/24 01:07:34;;;;;;;15.35;10.35;;;;;;;3.71;60.31;92810.00;521616;28;839;-73
2024/03/24 01:07:50;;;;;;;13.20;9.67;;;;;;;3.61;60.26;92809.69;521567;28;913;-73
2024/03/24 01:08:05;;;;;;;12.07;9.23;;;;;;;3.56;61.08;92809.75;521722;28;848;-73
2024/03/24 01:08:21;;;;;;;12.95;9.63;;;;;;;3.52;60.62;92809.31;520874;28;1780;-72
2024/03/24 01:08:36;;;;;;;14.70;10.77;;;;;;;3.53;61.22;92808.06;521511;28;982;-73
2024/03/24 01:08:52;;;;;;;15.70;11.52;;;;;;;3.54;61.12;92807.53;521385;28;804;-73
2024/03/24 01:09:07;;;;;;;16.53;11.63;;;;;;;3.57;61.12;92806.50;521677;28;1005;-73
2024/03/24 01:09:23;;;;;;;16.65;11.90;;;;;;;3.62;60.58;92799.47;520269;28;944;-73
2024/03/24 01:09:38;;;;;;;16.23;11.87;;;;;;;3.62;60.63;92810.41;520488;28;745;-73
2024/03/24 01:09:54;;;;;;;17.17;11.98;;;;;;;3.62;61.55;92807.66;519720;28;856;-72
2024/03/24 01:10:10;;;;;;;16.55;12.05;;;;;;;3.62;61.02;92799.47;520682;28;1077;-73
2024/03/24 01:10:25;;;;;;;15.77;11.50;;;;;;;3.64;60.90;92802.41;521803;28;864;-73
2024/03/24 01:10:41;;;;;;;14.82;10.93;;;;;;;3.66;61.31;92806.09;520270;28;1477;-72
2024/03/24 01:10:56;;;;;;;13.60;10.67;;;;;;;3.68;60.94;92811.78;519909;28;1611;-72
2024/03/24 01:11:13;;;;;;;12.35;9.60;;;;;;;3.71;60.53;92813.50;520761;28;776;-73
2024/03/24 01:11:28;;;;;;;11.57;8.75;;;;;;;3.71;60.85;92802.56;521652;28;913;-71
2024/03/24 01:11:44;;;;;;;11.95;8.52;;;;;;;3.70;60.83;92809.28;521582;28;1001;-74
2024/03/24 01:11:59;;;;;;;11.60;8.93;;;;;;;3.70;61.00;92806.53;521670;28;1042;-72
2024/03/24 01:12:15;;;;;;;11.10;9.10;;;;;;;3.71;61.03;92810.00;521811;28;1152;-71
2024/03/24 01:12:30;;;;;;;13.52;9.90;;;;;;;3.68;61.34;92808.34;521697;28;847;-71
2024/03/24 01:12:50;;;;;;;14.87;10.33;;;;;;;3.63;61.90;92803.69;520608;28;895;-72
2024/03/24 01:13:05;;;;;;;15.57;10.27;;;;;;;3.60;61.37;92807.44;519763;28;828;-71
2024/03/24 01:13:22;;;;;;;14.45;10.15;;;;;;;3.56;61.54;92799.56;519659;28;754;-72
2024/03/24 01:13:37;;;;;;;12.35;9.60;;;;;;;3.60;61.64;92807.44;520411;28;1761;-71
2024/03/24 01:13:53;;;;;;;12.20;9.82;;;;;;;3.60;61.13;92813.66;521119;28;1042;-72
2024/03/24 01:14:08;;;;;;;13.27;10.40;;;;;;;3.63;61.54;92809.16;521586;28;858;-71
2024/03/24 01:14:24;;;;;;;13.05;10.52;;;;;;;3.65;61.51;92806.63;521699;28;898;-72
2024/03/24 01:14:40;;;;;;;13.13;10.43;;;;;;;3.67;61.84;92815.03;521567;28;942;-72
2024/03/24 01:14:55;;;;;;;14.10;10.50;;;;;;;3.70;60.78;92816.75;521791;28;766;-71
2024/03/24 01:15:11;;;;;;;13.95;10.30;;;;;;;3.72;60.63;92808.78;521703;28;922;-71